sensor_id;sensor_type;location;lat;lon;timestamp;pressure;altitude;pressure_sealevel;temperature;humidity
23339;BME280;11841;49.368;20.962;2022-12-18T00:03:47;96788.81;;;-1.49;86.37
23339;BME280;11841;49.368;20.962;2022-12-18T00:06:14;96794.84;;;-1.60;86.39
23339;BME280;11841;49.368;20.962;2022-12-18T00:08:41;96797.78;;;-1.75;86.22
23339;BME280;11841;49.368;20.962;2022-12-18T00:11:10;96806.75;;;-1.79;86.21
23339;BME280;11841;49.368;20.962;2022-12-18T00:13:37;96816.41;;;-1.92;86.50
23339;BME280;11841;49.368;20.962;2022-12-18T00:16:04;96826.06;;;-1.94;86.45
23339;BME280;11841;49.368;20.962;2022-12-18T00:18:31;96824.16;;;-2.03;86.26
23339;BME280;11841;49.368;20.962;2022-12-18T00:21:02;96834.03;;;-2.19;86.52
23339;BME280;11841;49.368;20.962;2022-12-18T00:23:29;96835.13;;;-2.34;87.05
23339;BME280;11841;49.368;20.962;2022-12-18T00:26:02;96846.44;;;-2.35;87.37
23339;BME280;11841;49.368;20.962;2022-12-18T00:28:29;96857.13;;;-2.27;87.79
23339;BME280;11841;49.368;20.962;2022-12-18T00:31:15;96863.25;;;-2.28;87.62
23339;BME280;11841;49.368;20.962;2022-12-18T00:33:42;96854.50;;;-2.51;87.68
23339;BME280;11841;49.368;20.962;2022-12-18T00:36:13;96867.22;;;-2.59;88.40
23339;BME280;11841;49.368;20.962;2022-12-18T00:38:40;96872.19;;;-2.56;88.65
23339;BME280;11841;49.368;20.962;2022-12-18T00:41:07;96875.97;;;-2.73;88.67
23339;BME280;11841;49.368;20.962;2022-12-18T00:43:35;96886.41;;;-2.98;88.89
23339;BME280;11841;49.368;20.962;2022-12-18T00:46:02;96887.03;;;-3.07;89.75
23339;BME280;11841;49.368;20.962;2022-12-18T00:48:30;96881.44;;;-3.01;89.94
23339;BME280;11841;49.368;20.962;2022-12-18T00:50:57;96885.47;;;-2.97;89.73
23339;BME280;11841;49.368;20.962;2022-12-18T00:53:23;96904.69;;;-2.99;89.56
23339;BME280;11841;49.368;20.962;2022-12-18T00:55:49;96898.66;;;-3.00;89.22
23339;BME280;11841;49.368;20.962;2022-12-18T00:58:16;96897.63;;;-2.97;89.10
23339;BME280;11841;49.368;20.962;2022-12-18T01:00:43;96906.44;;;-3.00;88.89
23339;BME280;11841;49.368;20.962;2022-12-18T01:03:10;96910.38;;;-3.07;88.64
23339;BME280;11841;49.368;20.962;2022-12-18T01:05:39;96906.75;;;-3.04;88.95
23339;BME280;11841;49.368;20.962;2022-12-18T01:08:06;96912.34;;;-2.98;88.23
23339;BME280;11841;49.368;20.962;2022-12-18T01:10:32;96922.63;;;-2.96;88.48
23339;BME280;11841;49.368;20.962;2022-12-18T01:12:58;96920.66;;;-3.05;88.27
23339;BME280;11841;49.368;20.962;2022-12-18T01:15:25;96928.56;;;-3.19;88.22
23339;BME280;11841;49.368;20.962;2022-12-18T01:17:52;96926.47;;;-3.27;88.29
23339;BME280;11841;49.368;20.962;2022-12-18T01:20:19;96933.53;;;-3.29;88.90
23339;BME280;11841;49.368;20.962;2022-12-18T01:22:45;96933.53;;;-3.29;88.89
23339;BME280;11841;49.368;20.962;2022-12-18T01:25:11;96930.19;;;-3.31;88.85
23339;BME280;11841;49.368;20.962;2022-12-18T01:27:38;96940.03;;;-3.36;88.94
23339;BME280;11841;49.368;20.962;2022-12-18T01:30:04;96935.31;;;-3.29;89.22
23339;BME280;11841;49.368;20.962;2022-12-18T01:32:31;96937.66;;;-3.39;88.46
23339;BME280;11841;49.368;20.962;2022-12-18T01:34:58;96941.19;;;-3.40;88.47
23339;BME280;11841;49.368;20.962;2022-12-18T01:37:24;96938.28;;;-3.48;88.35
23339;BME280;11841;49.368;20.962;2022-12-18T01:39:51;96941.47;;;-3.44;88.40
23339;BME280;11841;49.368;20.962;2022-12-18T01:42:20;96946.38;;;-3.40;88.59
23339;BME280;11841;49.368;20.962;2022-12-18T01:52:35;96953.53;;;-3.31;87.70
23339;BME280;11841;49.368;20.962;2022-12-18T01:55:02;96955.72;;;-3.25;87.70
23339;BME280;11841;49.368;20.962;2022-12-18T01:57:30;96960.41;;;-3.17;87.19
23339;BME280;11841;49.368;20.962;2022-12-18T01:59:59;96967.75;;;-3.36;86.76
23339;BME280;11841;49.368;20.962;2022-12-18T02:02:27;96967.66;;;-3.35;87.08
23339;BME280;11841;49.368;20.962;2022-12-18T02:04:55;96970.25;;;-3.35;87.08
23339;BME280;11841;49.368;20.962;2022-12-18T02:10:03;96977.25;;;-3.62;86.10
23339;BME280;11841;49.368;20.962;2022-12-18T02:12:35;96975.34;;;-3.73;86.60
23339;BME280;11841;49.368;20.962;2022-12-18T02:17:55;96982.22;;;-3.59;86.25
23339;BME280;11841;49.368;20.962;2022-12-18T02:20:34;96988.03;;;-3.55;85.95
23339;BME280;11841;49.368;20.962;2022-12-18T02:23:08;96986.81;;;-3.50;86.30
23339;BME280;11841;49.368;20.962;2022-12-18T02:28:18;96994.38;;;-3.47;85.67
23339;BME280;11841;49.368;20.962;2022-12-18T02:30:47;96997.72;;;-3.45;85.34
23339;BME280;11841;49.368;20.962;2022-12-18T02:33:15;96994.50;;;-3.36;85.27
23339;BME280;11841;49.368;20.962;2022-12-18T02:35:42;97008.00;;;-3.31;84.97
23339;BME280;11841;49.368;20.962;2022-12-18T02:38:09;97006.34;;;-3.32;84.14
23339;BME280;11841;49.368;20.962;2022-12-18T02:40:38;97006.56;;;-3.35;83.88
23339;BME280;11841;49.368;20.962;2022-12-18T02:43:08;97008.31;;;-3.35;84.09
23339;BME280;11841;49.368;20.962;2022-12-18T02:45:35;97009.44;;;-3.39;83.43
23339;BME280;11841;49.368;20.962;2022-12-18T02:48:02;97013.75;;;-3.52;83.66
23339;BME280;11841;49.368;20.962;2022-12-18T02:50:30;97010.97;;;-3.49;84.10
23339;BME280;11841;49.368;20.962;2022-12-18T02:53:10;97027.16;;;-3.46;83.49
23339;BME280;11841;49.368;20.962;2022-12-18T03:05:52;97038.59;;;-3.62;82.99
23339;BME280;11841;49.368;20.962;2022-12-18T03:08:23;97042.16;;;-3.63;82.88
23339;BME280;11841;49.368;20.962;2022-12-18T03:11:03;97057.81;;;-3.65;82.75
23339;BME280;11841;49.368;20.962;2022-12-18T03:15:57;97055.56;;;-3.71;82.69
23339;BME280;11841;49.368;20.962;2022-12-18T03:18:30;97050.69;;;-3.76;82.44
23339;BME280;11841;49.368;20.962;2022-12-18T03:21:00;97052.84;;;-3.82;82.11
23339;BME280;11841;49.368;20.962;2022-12-18T03:23:32;97050.97;;;-3.80;82.77
23339;BME280;11841;49.368;20.962;2022-12-18T03:26:02;97062.19;;;-3.80;82.60
23339;BME280;11841;49.368;20.962;2022-12-18T03:28:33;97070.03;;;-3.81;82.37
23339;BME280;11841;49.368;20.962;2022-12-18T03:31:02;97073.59;;;-3.82;82.47
23339;BME280;11841;49.368;20.962;2022-12-18T03:33:34;97070.44;;;-3.87;81.89
23339;BME280;11841;49.368;20.962;2022-12-18T03:36:04;97080.34;;;-3.94;81.82
23339;BME280;11841;49.368;20.962;2022-12-18T03:38:30;97077.19;;;-3.99;81.89
23339;BME280;11841;49.368;20.962;2022-12-18T03:46:41;97078.03;;;-3.98;82.23
23339;BME280;11841;49.368;20.962;2022-12-18T03:49:23;97080.72;;;-4.00;81.80
23339;BME280;11841;49.368;20.962;2022-12-18T03:51:53;97088.78;;;-4.04;81.77
23339;BME280;11841;49.368;20.962;2022-12-18T03:54:21;97100.06;;;-4.05;81.94
23339;BME280;11841;49.368;20.962;2022-12-18T03:56:49;97100.56;;;-4.13;81.49
23339;BME280;11841;49.368;20.962;2022-12-18T03:59:17;97093.25;;;-4.20;81.55
23339;BME280;11841;49.368;20.962;2022-12-18T04:01:46;97102.31;;;-4.27;81.33
23339;BME280;11841;49.368;20.962;2022-12-18T04:04:14;97108.06;;;-4.36;81.23
23339;BME280;11841;49.368;20.962;2022-12-18T04:06:41;97118.56;;;-4.39;81.60
23339;BME280;11841;49.368;20.962;2022-12-18T04:09:09;97117.13;;;-4.43;81.54
23339;BME280;11841;49.368;20.962;2022-12-18T04:11:36;97125.41;;;-4.52;81.04
23339;BME280;11841;49.368;20.962;2022-12-18T04:14:02;97128.19;;;-4.55;81.59
23339;BME280;11841;49.368;20.962;2022-12-18T04:16:32;97123.75;;;-4.53;81.71
23339;BME280;11841;49.368;20.962;2022-12-18T04:18:59;97133.09;;;-4.51;81.51
23339;BME280;11841;49.368;20.962;2022-12-18T04:21:25;97137.41;;;-4.65;81.01
23339;BME280;11841;49.368;20.962;2022-12-18T04:23:52;97139.03;;;-4.78;81.48
23339;BME280;11841;49.368;20.962;2022-12-18T04:26:18;97137.09;;;-4.75;81.85
23339;BME280;11841;49.368;20.962;2022-12-18T04:28:45;97132.31;;;-4.81;81.38
23339;BME280;11841;49.368;20.962;2022-12-18T04:31:11;97144.94;;;-4.90;81.45
23339;BME280;11841;49.368;20.962;2022-12-18T04:33:38;97151.03;;;-4.92;81.61
23339;BME280;11841;49.368;20.962;2022-12-18T04:36:05;97155.28;;;-4.90;81.71
23339;BME280;11841;49.368;20.962;2022-12-18T04:38:31;97155.84;;;-4.85;81.61
23339;BME280;11841;49.368;20.962;2022-12-18T04:40:58;97150.84;;;-4.88;81.51
23339;BME280;11841;49.368;20.962;2022-12-18T04:43:25;97158.69;;;-4.90;81.56
23339;BME280;11841;49.368;20.962;2022-12-18T04:45:51;97171.91;;;-4.95;81.20
23339;BME280;11841;49.368;20.962;2022-12-18T04:48:17;97172.06;;;-4.98;81.25
23339;BME280;11841;49.368;20.962;2022-12-18T04:50:44;97175.94;;;-5.05;81.31
23339;BME280;11841;49.368;20.962;2022-12-18T04:53:11;97174.34;;;-5.07;81.61
23339;BME280;11841;49.368;20.962;2022-12-18T04:55:37;97181.28;;;-5.23;80.98
23339;BME280;11841;49.368;20.962;2022-12-18T04:58:04;97191.16;;;-5.30;81.68
23339;BME280;11841;49.368;20.962;2022-12-18T05:00:30;97189.13;;;-5.25;81.88
23339;BME280;11841;49.368;20.962;2022-12-18T05:02:56;97192.03;;;-5.15;81.88
23339;BME280;11841;49.368;20.962;2022-12-18T05:05:23;97197.97;;;-5.13;81.73
23339;BME280;11841;49.368;20.962;2022-12-18T05:07:49;97198.63;;;-5.10;81.68
23339;BME280;11841;49.368;20.962;2022-12-18T05:10:16;97202.63;;;-5.04;81.79
23339;BME280;11841;49.368;20.962;2022-12-18T05:12:42;97199.97;;;-5.03;82.11
23339;BME280;11841;49.368;20.962;2022-12-18T05:15:27;97208.47;;;-5.01;81.03
23339;BME280;11841;49.368;20.962;2022-12-18T05:17:54;97213.03;;;-5.06;81.70
23339;BME280;11841;49.368;20.962;2022-12-18T05:20:20;97216.56;;;-5.07;81.63
23339;BME280;11841;49.368;20.962;2022-12-18T05:22:47;97221.22;;;-5.13;81.55
23339;BME280;11841;49.368;20.962;2022-12-18T05:25:13;97228.50;;;-5.20;81.42
23339;BME280;11841;49.368;20.962;2022-12-18T05:27:39;97233.84;;;-5.23;81.77
23339;BME280;11841;49.368;20.962;2022-12-18T05:30:06;97239.03;;;-5.23;81.64
23339;BME280;11841;49.368;20.962;2022-12-18T05:32:33;97240.84;;;-5.25;81.72
23339;BME280;11841;49.368;20.962;2022-12-18T05:34:59;97240.28;;;-5.30;81.41
23339;BME280;11841;49.368;20.962;2022-12-18T05:37:26;97245.53;;;-5.31;82.15
23339;BME280;11841;49.368;20.962;2022-12-18T05:39:52;97242.50;;;-5.24;82.15
23339;BME280;11841;49.368;20.962;2022-12-18T05:42:18;97246.69;;;-5.21;81.78
23339;BME280;11841;49.368;20.962;2022-12-18T05:44:45;97242.19;;;-5.18;81.90
23339;BME280;11841;49.368;20.962;2022-12-18T05:47:11;97249.69;;;-5.13;81.21
23339;BME280;11841;49.368;20.962;2022-12-18T05:49:38;97250.66;;;-5.16;81.63
23339;BME280;11841;49.368;20.962;2022-12-18T05:52:04;97263.00;;;-5.21;81.72
23339;BME280;11841;49.368;20.962;2022-12-18T05:54:31;97254.84;;;-5.29;81.19
23339;BME280;11841;49.368;20.962;2022-12-18T05:56:57;97261.84;;;-5.31;81.62
23339;BME280;11841;49.368;20.962;2022-12-18T05:59:24;97268.84;;;-5.33;82.15
23339;BME280;11841;49.368;20.962;2022-12-18T06:01:50;97269.94;;;-5.37;81.62
23339;BME280;11841;49.368;20.962;2022-12-18T06:04:17;97273.38;;;-5.36;82.29
23339;BME280;11841;49.368;20.962;2022-12-18T06:06:44;97273.19;;;-5.33;81.71
23339;BME280;11841;49.368;20.962;2022-12-18T06:09:10;97284.34;;;-5.33;82.40
23339;BME280;11841;49.368;20.962;2022-12-18T06:11:38;97286.72;;;-5.28;82.14
23339;BME280;11841;49.368;20.962;2022-12-18T06:14:05;97301.63;;;-5.33;81.63
23339;BME280;11841;49.368;20.962;2022-12-18T06:16:32;97288.94;;;-5.38;82.11
23339;BME280;11841;49.368;20.962;2022-12-18T06:18:59;97295.13;;;-5.40;82.46
23339;BME280;11841;49.368;20.962;2022-12-18T06:21:26;97304.13;;;-5.32;82.45
23339;BME280;11841;49.368;20.962;2022-12-18T06:23:53;97306.91;;;-5.35;82.59
23339;BME280;11841;49.368;20.962;2022-12-18T06:26:20;97310.72;;;-5.42;82.24
23339;BME280;11841;49.368;20.962;2022-12-18T06:28:53;97310.72;;;-5.42;81.88
23339;BME280;11841;49.368;20.962;2022-12-18T06:31:19;97305.19;;;-5.36;82.16
23339;BME280;11841;49.368;20.962;2022-12-18T06:33:46;97311.31;;;-5.37;81.61
23339;BME280;11841;49.368;20.962;2022-12-18T06:36:13;97312.53;;;-5.44;82.19
23339;BME280;11841;49.368;20.962;2022-12-18T06:38:40;97321.94;;;-5.43;81.96
23339;BME280;11841;49.368;20.962;2022-12-18T06:41:12;97330.25;;;-5.36;82.03
23339;BME280;11841;49.368;20.962;2022-12-18T06:43:39;97330.75;;;-5.30;82.05
23339;BME280;11841;49.368;20.962;2022-12-18T06:46:06;97325.56;;;-5.30;81.63
23339;BME280;11841;49.368;20.962;2022-12-18T06:48:33;97330.28;;;-5.38;80.89
23339;BME280;11841;49.368;20.962;2022-12-18T06:50:59;97336.38;;;-5.39;81.60
23339;BME280;11841;49.368;20.962;2022-12-18T06:53:26;97339.97;;;-5.41;81.53
23339;BME280;11841;49.368;20.962;2022-12-18T06:55:52;97345.88;;;-5.39;81.31
23339;BME280;11841;49.368;20.962;2022-12-18T06:58:19;97339.06;;;-5.40;81.10
23339;BME280;11841;49.368;20.962;2022-12-18T07:00:45;97360.41;;;-5.37;81.31
23339;BME280;11841;49.368;20.962;2022-12-18T07:03:12;97351.72;;;-5.36;80.82
23339;BME280;11841;49.368;20.962;2022-12-18T07:05:39;97364.91;;;-5.40;79.98
23339;BME280;11841;49.368;20.962;2022-12-18T07:08:06;97374.06;;;-5.50;80.19
23339;BME280;11841;49.368;20.962;2022-12-18T07:10:33;97377.63;;;-5.53;80.81
23339;BME280;11841;49.368;20.962;2022-12-18T07:12:59;97373.13;;;-5.49;80.80
23339;BME280;11841;49.368;20.962;2022-12-18T07:15:26;97378.38;;;-5.51;81.02
23339;BME280;11841;49.368;20.962;2022-12-18T07:17:52;97384.59;;;-5.55;80.41
23339;BME280;11841;49.368;20.962;2022-12-18T07:20:18;97383.72;;;-5.54;80.95
23339;BME280;11841;49.368;20.962;2022-12-18T07:22:45;97388.56;;;-5.48;80.96
23339;BME280;11841;49.368;20.962;2022-12-18T07:25:11;97397.31;;;-5.50;80.90
23339;BME280;11841;49.368;20.962;2022-12-18T07:27:38;97398.28;;;-5.53;81.02
23339;BME280;11841;49.368;20.962;2022-12-18T07:30:04;97408.63;;;-5.53;81.31
23339;BME280;11841;49.368;20.962;2022-12-18T07:32:31;97412.44;;;-5.60;81.30
23339;BME280;11841;49.368;20.962;2022-12-18T07:34:57;97419.03;;;-5.54;81.07
23339;BME280;11841;49.368;20.962;2022-12-18T07:37:24;97416.53;;;-5.56;81.59
23339;BME280;11841;49.368;20.962;2022-12-18T07:39:50;97418.28;;;-5.56;81.30
23339;BME280;11841;49.368;20.962;2022-12-18T07:42:16;97418.19;;;-5.55;81.58
23339;BME280;11841;49.368;20.962;2022-12-18T07:44:59;97435.56;;;-5.57;81.61
23339;BME280;11841;49.368;20.962;2022-12-18T07:47:27;97433.88;;;-5.58;81.43
23339;BME280;11841;49.368;20.962;2022-12-18T07:49:54;97434.34;;;-5.50;81.64
23339;BME280;11841;49.368;20.962;2022-12-18T07:52:21;97440.41;;;-5.51;81.09
23339;BME280;11841;49.368;20.962;2022-12-18T07:54:51;97433.72;;;-5.55;80.91
23339;BME280;11841;49.368;20.962;2022-12-18T07:57:17;97446.03;;;-5.60;80.48
23339;BME280;11841;49.368;20.962;2022-12-18T08:00:04;97449.84;;;-5.67;80.70
23339;BME280;11841;49.368;20.962;2022-12-18T08:02:31;97446.03;;;-5.60;81.14
23339;BME280;11841;49.368;20.962;2022-12-18T08:04:58;97446.09;;;-5.61;80.71
23339;BME280;11841;49.368;20.962;2022-12-18T08:07:24;97454.00;;;-5.64;80.52
23339;BME280;11841;49.368;20.962;2022-12-18T08:09:51;97457.53;;;-5.65;80.44
23339;BME280;11841;49.368;20.962;2022-12-18T08:12:17;97453.03;;;-5.62;80.52
23339;BME280;11841;49.368;20.962;2022-12-18T08:14:43;97451.97;;;-5.58;80.40
23339;BME280;11841;49.368;20.962;2022-12-18T08:17:10;97456.31;;;-5.58;80.66
23339;BME280;11841;49.368;20.962;2022-12-18T08:19:36;97462.53;;;-5.62;80.48
23339;BME280;11841;49.368;20.962;2022-12-18T08:22:03;97461.00;;;-5.66;80.75
23339;BME280;11841;49.368;20.962;2022-12-18T08:24:29;97470.66;;;-5.70;80.54
23339;BME280;11841;49.368;20.962;2022-12-18T08:26:55;97463.50;;;-5.65;80.82
23339;BME280;11841;49.368;20.962;2022-12-18T08:29:43;97465.03;;;-5.61;80.12
23339;BME280;11841;49.368;20.962;2022-12-18T08:32:09;97456.53;;;-5.63;80.64
23339;BME280;11841;49.368;20.962;2022-12-18T08:34:36;97460.03;;;-5.64;80.61
23339;BME280;11841;49.368;20.962;2022-12-18T08:37:02;97462.44;;;-5.61;80.87
23339;BME280;11841;49.368;20.962;2022-12-18T08:39:29;97458.06;;;-5.59;79.57
23339;BME280;11841;49.368;20.962;2022-12-18T08:41:55;97463.50;;;-5.65;79.73
23339;BME280;11841;49.368;20.962;2022-12-18T08:44:40;97463.75;;;-5.69;80.61
23339;BME280;11841;49.368;20.962;2022-12-18T08:47:07;97464.66;;;-5.70;79.98
23339;BME280;11841;49.368;20.962;2022-12-18T08:49:34;97467.16;;;-5.69;80.37
23339;BME280;11841;49.368;20.962;2022-12-18T08:52:01;97471.34;;;-5.66;79.85
23339;BME280;11841;49.368;20.962;2022-12-18T08:54:28;97466.31;;;-5.69;79.50
23339;BME280;11841;49.368;20.962;2022-12-18T08:56:55;97475.91;;;-5.71;79.87
23339;BME280;11841;49.368;20.962;2022-12-18T08:59:21;97465.88;;;-5.77;79.11
23339;BME280;11841;49.368;20.962;2022-12-18T09:01:53;97473.06;;;-5.82;79.67
23339;BME280;11841;49.368;20.962;2022-12-18T09:04:19;97474.00;;;-5.85;79.87
23339;BME280;11841;49.368;20.962;2022-12-18T09:06:46;97476.59;;;-5.85;79.51
23339;BME280;11841;49.368;20.962;2022-12-18T09:09:12;97481.91;;;-5.88;80.29
23339;BME280;11841;49.368;20.962;2022-12-18T09:11:39;97476.91;;;-5.91;79.96
23339;BME280;11841;49.368;20.962;2022-12-18T09:14:05;97484.34;;;-5.85;80.63
23339;BME280;11841;49.368;20.962;2022-12-18T09:16:32;97479.94;;;-5.83;80.54
23339;BME280;11841;49.368;20.962;2022-12-18T09:19:02;97476.28;;;-5.79;80.11
23339;BME280;11841;49.368;20.962;2022-12-18T09:21:29;97472.94;;;-5.81;80.25
23339;BME280;11841;49.368;20.962;2022-12-18T09:23:57;97479.75;;;-5.80;79.97
23339;BME280;11841;49.368;20.962;2022-12-18T09:26:24;97472.94;;;-5.81;80.32
23339;BME280;11841;49.368;20.962;2022-12-18T09:28:51;97483.97;;;-5.77;80.39
23339;BME280;11841;49.368;20.962;2022-12-18T09:31:18;97481.13;;;-5.73;80.69
23339;BME280;11841;49.368;20.962;2022-12-18T09:33:45;97486.03;;;-5.67;81.29
23339;BME280;11841;49.368;20.962;2022-12-18T09:36:13;97486.69;;;-5.63;81.04
23339;BME280;11841;49.368;20.962;2022-12-18T09:38:40;97482.88;;;-5.56;81.45
23339;BME280;11841;49.368;20.962;2022-12-18T09:43:53;97484.50;;;-5.37;82.04
23339;BME280;11841;49.368;20.962;2022-12-18T09:46:24;97474.75;;;-5.32;81.99
23339;BME280;11841;49.368;20.962;2022-12-18T09:48:52;97479.47;;;-5.23;82.14
23339;BME280;11841;49.368;20.962;2022-12-18T09:51:26;97481.72;;;-5.17;82.30
23339;BME280;11841;49.368;20.962;2022-12-18T09:53:57;97478.00;;;-5.11;81.94
23339;BME280;11841;49.368;20.962;2022-12-18T09:56:25;97470.06;;;-5.08;81.81
23339;BME280;11841;49.368;20.962;2022-12-18T09:59:01;97474.25;;;-5.06;81.79
23339;BME280;11841;49.368;20.962;2022-12-18T10:01:28;97472.34;;;-5.02;82.14
23339;BME280;11841;49.368;20.962;2022-12-18T10:04:08;97473.94;;;-5.00;82.24
23339;BME280;11841;49.368;20.962;2022-12-18T10:06:38;97471.19;;;-4.97;81.68
23339;BME280;11841;49.368;20.962;2022-12-18T10:09:20;97466.78;;;-4.95;81.96
23339;BME280;11841;49.368;20.962;2022-12-18T10:19:53;97474.75;;;-4.82;81.67
23339;BME280;11841;49.368;20.962;2022-12-18T10:27:44;97473.16;;;-4.69;82.13
23339;BME280;11841;49.368;20.962;2022-12-18T10:30:15;97474.59;;;-4.63;81.84
23339;BME280;11841;49.368;20.962;2022-12-18T10:32:42;97475.03;;;-4.55;82.12
23339;BME280;11841;49.368;20.962;2022-12-18T10:35:16;97473.88;;;-4.50;82.05
23339;BME280;11841;49.368;20.962;2022-12-18T10:38:00;97478.03;;;-4.47;81.67
23339;BME280;11841;49.368;20.962;2022-12-18T10:40:27;97478.69;;;-4.44;81.95
23339;BME280;11841;49.368;20.962;2022-12-18T10:43:10;97470.44;;;-4.35;81.98
23339;BME280;11841;49.368;20.962;2022-12-18T10:45:37;97471.03;;;-4.30;81.93
23339;BME280;11841;49.368;20.962;2022-12-18T10:48:04;97468.16;;;-4.25;81.97
23339;BME280;11841;49.368;20.962;2022-12-18T10:50:32;97471.16;;;-4.17;81.74
23339;BME280;11841;49.368;20.962;2022-12-18T10:53:19;97464.81;;;-4.12;81.81
23339;BME280;11841;49.368;20.962;2022-12-18T10:55:47;97476.03;;;-4.11;81.57
23339;BME280;11841;49.368;20.962;2022-12-18T10:58:36;97479.50;;;-4.12;81.36
23339;BME280;11841;49.368;20.962;2022-12-18T11:01:08;97479.19;;;-4.06;81.39
23339;BME280;11841;49.368;20.962;2022-12-18T11:03:35;97473.66;;;-4.00;81.04
23339;BME280;11841;49.368;20.962;2022-12-18T11:06:06;97467.31;;;-4.10;80.86
23339;BME280;11841;49.368;20.962;2022-12-18T11:08:33;97468.75;;;-4.20;81.08
23339;BME280;11841;49.368;20.962;2022-12-18T11:11:00;97462.50;;;-4.16;81.67
23339;BME280;11841;49.368;20.962;2022-12-18T11:13:28;97463.75;;;-4.08;81.18
23339;BME280;11841;49.368;20.962;2022-12-18T11:15:55;97463.16;;;-3.97;81.46
23339;BME280;11841;49.368;20.962;2022-12-18T11:18:24;97451.50;;;-3.90;81.39
23339;BME280;11841;49.368;20.962;2022-12-18T11:21:13;97459.69;;;-3.82;81.14
23339;BME280;11841;49.368;20.962;2022-12-18T11:26:15;97450.78;;;-3.92;81.14
23339;BME280;11841;49.368;20.962;2022-12-18T11:28:43;97443.31;;;-3.98;80.99
23339;BME280;11841;49.368;20.962;2022-12-18T11:33:44;97446.50;;;-4.09;81.14
23339;BME280;11841;49.368;20.962;2022-12-18T11:36:33;97450.53;;;-4.03;81.51
23339;BME280;11841;49.368;20.962;2022-12-18T11:39:07;97450.78;;;-3.92;81.48
23339;BME280;11841;49.368;20.962;2022-12-18T11:41:41;97453.00;;;-3.86;80.92
23339;BME280;11841;49.368;20.962;2022-12-18T11:44:35;97447.41;;;-3.79;80.94
23339;BME280;11841;49.368;20.962;2022-12-18T11:47:09;97449.72;;;-3.74;80.78
23339;BME280;11841;49.368;20.962;2022-12-18T11:49:41;97446.03;;;-3.70;80.50
23339;BME280;11841;49.368;20.962;2022-12-18T11:52:10;97449.19;;;-3.65;80.38
23339;BME280;11841;49.368;20.962;2022-12-18T11:54:41;97455.28;;;-3.66;80.27
23339;BME280;11841;49.368;20.962;2022-12-18T11:59:44;97455.03;;;-3.61;79.91
23339;BME280;11841;49.368;20.962;2022-12-18T12:02:29;97457.38;;;-3.57;79.97
23339;BME280;11841;49.368;20.962;2022-12-18T12:07:36;97454.31;;;-3.49;79.86
23339;BME280;11841;49.368;20.962;2022-12-18T12:18:12;97469.25;;;-3.39;79.97
23339;BME280;11841;49.368;20.962;2022-12-18T12:26:04;97467.03;;;-3.45;80.21
23339;BME280;11841;49.368;20.962;2022-12-18T12:34:12;97474.75;;;-3.29;80.28
23339;BME280;11841;49.368;20.962;2022-12-18T12:37:04;97471.13;;;-3.27;80.34
23339;BME280;11841;49.368;20.962;2022-12-18T12:39:33;97470.13;;;-3.24;80.37
23339;BME280;11841;49.368;20.962;2022-12-18T12:42:02;97472.97;;;-3.29;79.94
23339;BME280;11841;49.368;20.962;2022-12-18T12:44:52;97473.91;;;-3.30;80.05
23339;BME280;11841;49.368;20.962;2022-12-18T12:47:32;97486.31;;;-3.35;79.89
23339;BME280;11841;49.368;20.962;2022-12-18T12:50:01;97482.22;;;-3.39;80.24
23339;BME280;11841;49.368;20.962;2022-12-18T12:52:33;97487.41;;;-3.39;80.32
23339;BME280;11841;49.368;20.962;2022-12-18T12:55:02;97484.63;;;-3.36;80.34
23339;BME280;11841;49.368;20.962;2022-12-18T12:57:40;97493.72;;;-3.29;80.68
23339;BME280;11841;49.368;20.962;2022-12-18T13:00:15;97500.41;;;-3.25;80.64
23339;BME280;11841;49.368;20.962;2022-12-18T13:08:12;97510.41;;;-3.19;81.12
23339;BME280;11841;49.368;20.962;2022-12-18T13:10:49;97511.44;;;-3.21;81.09
23339;BME280;11841;49.368;20.962;2022-12-18T13:13:16;97514.88;;;-3.21;81.29
23339;BME280;11841;49.368;20.962;2022-12-18T13:16:02;97523.13;;;-3.14;81.46
23339;BME280;11841;49.368;20.962;2022-12-18T13:18:29;97523.56;;;-3.22;81.07
23339;BME280;11841;49.368;20.962;2022-12-18T13:23:29;97518.56;;;-3.25;81.28
23339;BME280;11841;49.368;20.962;2022-12-18T13:31:02;97549.78;;;-3.26;81.57
23339;BME280;11841;49.368;20.962;2022-12-18T13:43:35;97558.75;;;-3.02;81.03
23339;BME280;11841;49.368;20.962;2022-12-18T13:51:18;97567.25;;;-3.00;80.56
23339;BME280;11841;49.368;20.962;2022-12-18T13:53:51;97569.13;;;-3.02;80.62
23339;BME280;11841;49.368;20.962;2022-12-18T13:56:18;97567.44;;;-3.03;80.57
23339;BME280;11841;49.368;20.962;2022-12-18T14:01:33;97571.06;;;-3.06;80.29
23339;BME280;11841;49.368;20.962;2022-12-18T14:04:17;97570.03;;;-3.17;79.79
23339;BME280;11841;49.368;20.962;2022-12-18T14:06:45;97573.22;;;-3.28;79.84
23339;BME280;11841;49.368;20.962;2022-12-18T14:09:15;97578.56;;;-3.31;80.24
23339;BME280;11841;49.368;20.962;2022-12-18T14:11:47;97570.78;;;-3.31;80.20
23339;BME280;11841;49.368;20.962;2022-12-18T14:14:15;97575.41;;;-3.36;79.54
23339;BME280;11841;49.368;20.962;2022-12-18T14:16:42;97582.03;;;-3.46;79.32
23339;BME280;11841;49.368;20.962;2022-12-18T14:19:12;97577.38;;;-3.55;79.47
23339;BME280;11841;49.368;20.962;2022-12-18T14:21:44;97574.28;;;-3.61;79.47
23339;BME280;11841;49.368;20.962;2022-12-18T14:26:44;97588.16;;;-3.78;78.93
23339;BME280;11841;49.368;20.962;2022-12-18T14:34:31;97590.75;;;-4.09;78.92
23339;BME280;11841;49.368;20.962;2022-12-18T14:36:58;97590.16;;;-4.14;78.87
23339;BME280;11841;49.368;20.962;2022-12-18T14:39:24;97603.25;;;-4.17;79.26
23339;BME280;11841;49.368;20.962;2022-12-18T14:41:52;97603.34;;;-4.19;79.24
23339;BME280;11841;49.368;20.962;2022-12-18T14:44:19;97601.00;;;-4.23;79.40
23339;BME280;11841;49.368;20.962;2022-12-18T14:46:47;97601.19;;;-4.26;79.38
23339;BME280;11841;49.368;20.962;2022-12-18T14:49:23;97608.19;;;-4.28;79.60
23339;BME280;11841;49.368;20.962;2022-12-18T14:51:52;97611.53;;;-4.26;79.50
23339;BME280;11841;49.368;20.962;2022-12-18T14:54:19;97616.84;;;-4.29;79.56
23339;BME280;11841;49.368;20.962;2022-12-18T14:56:51;97612.59;;;-4.30;79.57
23339;BME280;11841;49.368;20.962;2022-12-18T14:59:19;97617.03;;;-4.32;79.90
23339;BME280;11841;49.368;20.962;2022-12-18T15:04:36;97624.78;;;-4.32;80.20